Skidmore, Missouri
Current Conditions -  °F | °C
As of 12:55 AM on Monday 22 Dec 2014 (Local Time) from KICL Reporting Station
Haze Haze  
Wind Chill: 36°   Ceiling: 600
Heat Index: 43°   Visibility: 5mi
Dew Point: 43°   Wind: 13mph
Humidity: 100%   Direction: 160°SSE
Pressure: 29.69"   Gusts: NA
Location:  40.29°N, 95.08°W
Report Text: KICL 220655Z AUTO 16011KT 5SM BR OVC006 06/06 A2969 RMK AO2
Loading
Personal Weather Stations






























Interactive Weather Map New forecast layout! Learn more

10-Day Weather Forecast

Advertisements
Track Severe Weather on mobile